Time;durP1;ratioP1;P1;durP2;ratioP2;P2;SDS_P1;SDS_P2;PMS_P1;PMS_P2;Temp;Humidity;BMP_temperature;BMP_pressure;BME280_temperature;BME280_humidity;BME280_pressure;Samples;Min_cycle;Max_cycle;Signal;HPM_P1;HPM_P2
2024/05/06 00:01:53;;;;;;;1.20;1.10;;;16.80;63.50;;;12.65;100.00;94762.94;5289708;27;20469;-56
2024/05/06 00:04:19;;;;;;;1.70;1.08;;;16.80;63.60;;;12.64;100.00;94776.59;5282214;27;20004;-56
2024/05/06 00:06:45;;;;;;;1.25;1.13;;;16.80;63.80;;;12.63;100.00;94793.69;5273009;27;20029;-53
2024/05/06 00:09:11;;;;;;;1.38;1.20;;;16.70;63.90;;;12.56;100.00;94823.47;5281545;27;20005;-50
2024/05/06 00:11:37;;;;;;;1.17;1.10;;;16.70;64.10;;;12.55;100.00;94834.47;5286147;27;20500;-57
2024/05/06 00:14:03;;;;;;;2.20;1.25;;;16.70;64.50;;;12.59;100.00;94841.59;5293684;27;20378;-50
2024/05/06 00:16:28;;;;;;;1.67;1.40;;;16.70;64.60;;;12.60;100.00;94843.19;5283862;27;20002;-54
2024/05/06 00:18:54;;;;;;;2.35;1.63;;;16.70;64.80;;;12.60;100.00;94851.22;5282886;27;20015;-55
2024/05/06 00:21:20;;;;;;;1.50;1.40;;;16.70;64.90;;;12.61;100.00;94849.31;5292100;27;20504;-52
2024/05/06 00:23:47;;;;;;;2.85;2.00;;;16.70;65.00;;;12.63;100.00;94847.13;5278574;27;20474;-54
2024/05/06 00:26:13;;;;;;;3.15;1.90;;;16.70;65.20;;;12.63;100.00;94841.78;5271386;27;20012;-54
2024/05/06 00:28:39;;;;;;;1.85;1.48;;;16.70;65.30;;;12.65;100.00;94836.94;5283979;27;20002;-48
2024/05/06 00:31:05;;;;;;;3.25;1.60;;;16.70;65.30;;;12.64;100.00;94836.16;5280114;27;20011;-48
2024/05/06 00:33:31;;;;;;;1.42;1.33;;;16.70;65.30;;;12.63;100.00;94825.75;5267587;27;20002;-48
2024/05/06 00:36:01;;;;;;;2.10;1.90;;;16.70;65.30;;;12.62;100.00;94814.28;5278651;27;20025;-53
2024/05/06 00:38:28;;;;;;;1.60;1.50;;;16.70;65.30;;;12.60;100.00;94803.13;5263879;27;20022;-56
2024/05/06 00:40:54;;;;;;;1.73;1.50;;;16.70;65.30;;;12.53;100.00;94799.25;5284362;27;20083;-55
2024/05/06 00:43:20;;;;;;;1.80;1.60;;;16.70;65.40;;;12.51;100.00;94791.53;5265561;27;20037;-52
2024/05/06 00:45:46;;;;;;;3.35;1.80;;;16.70;65.50;;;12.50;100.00;94788.06;5277449;27;20003;-55
2024/05/06 00:48:17;;;;;;;2.08;1.63;;;16.70;65.70;;;12.47;100.00;94764.63;5257670;27;20015;-54
2024/05/06 00:50:45;;;;;;;2.13;1.60;;;16.70;65.80;;;12.44;100.00;94756.38;5244255;27;20030;-56
2024/05/06 00:53:12;;;;;;;1.92;1.73;;;16.60;65.80;;;12.36;100.00;94728.50;5277770;27;20009;-52
2024/05/06 00:55:41;;;;;;;1.63;1.50;;;16.60;66.00;;;12.13;100.00;94710.78;5235264;27;20010;-55
2024/05/06 00:58:09;;;;;;;1.52;1.33;;;16.60;66.40;;;12.23;100.00;94747.97;5282338;27;20001;-51
2024/05/06 01:00:37;;;;;;;1.83;1.73;;;16.60;66.50;;;12.30;100.00;94785.75;5280444;27;20012;-54
2024/05/06 01:03:03;;;;;;;2.33;1.70;;;16.50;66.60;;;12.35;100.00;94799.03;5265947;27;20017;-54
2024/05/06 01:05:29;;;;;;;2.20;1.77;;;16.60;67.00;;;12.40;100.00;94787.44;5258110;27;20006;-54
2024/05/06 01:07:55;;;;;;;2.58;1.45;;;16.50;66.90;;;12.40;100.00;94774.09;5278892;27;20026;-54
2024/05/06 01:10:21;;;;;;;3.90;1.70;;;16.50;66.90;;;12.40;100.00;94772.22;5269910;27;20009;-56
2024/05/06 01:12:48;;;;;;;2.00;1.70;;;16.50;66.90;;;12.42;100.00;94780.72;5275880;27;20018;-53
2024/05/06 01:15:14;;;;;;;3.72;2.00;;;16.50;66.90;;;12.42;100.00;94769.25;5279275;27;20008;-56
2024/05/06 01:17:40;;;;;;;1.80;1.65;;;16.50;66.90;;;12.38;100.00;94763.72;5266326;27;20005;-49
2024/05/06 01:20:07;;;;;;;3.13;1.80;;;16.50;66.80;;;12.37;100.00;94772.81;5277545;27;20013;-50
2024/05/06 01:22:49;;;;;;;2.50;1.80;;;16.50;66.80;;;12.36;100.00;94786.47;5250684;27;20021;-54
2024/05/06 01:25:16;;;;;;;2.10;1.90;;;16.50;67.20;;;12.32;100.00;94772.13;5273491;27;20012;-49
2024/05/06 01:27:42;;;;;;;1.95;1.60;;;16.50;66.80;;;12.26;100.00;94758.84;5286603;27;20018;-52
2024/05/06 01:30:08;;;;;;;2.25;1.80;;;16.40;66.80;;;12.18;100.00;94748.06;5273043;27;20001;-52
2024/05/06 01:32:36;;;;;;;2.38;2.10;;;16.40;66.90;;;12.16;100.00;94744.88;5267573;27;20006;-53
2024/05/06 01:35:03;;;;;;;1.90;1.70;;;16.40;67.00;;;12.15;100.00;94743.31;5270298;27;20021;-54
2024/05/06 01:37:29;;;;;;;7.30;2.30;;;16.40;67.10;;;12.17;100.00;94746.47;5276415;27;20029;-53
2024/05/06 01:39:55;;;;;;;3.67;1.88;;;16.30;67.10;;;12.18;100.00;94751.50;5264928;27;20050;-53
2024/05/06 01:42:21;;;;;;;2.30;2.10;;;16.40;67.20;;;12.18;100.00;94754.19;5276377;27;20009;-55
2024/05/06 01:44:49;;;;;;;2.25;1.70;;;16.40;67.20;;;12.16;100.00;94753.72;5273324;27;20007;-56
2024/05/06 01:47:15;;;;;;;3.92;1.98;;;16.30;67.20;;;12.13;100.00;94767.63;5265928;27;20013;-55
2024/05/06 01:49:41;;;;;;;3.95;2.10;;;16.30;67.10;;;12.09;100.00;94776.50;5277183;27;20025;-52
2024/05/06 01:52:07;;;;;;;3.92;2.25;;;16.30;67.90;;;12.08;100.00;94797.09;5283538;27;20025;-51
2024/05/06 01:54:32;;;;;;;3.95;2.20;;;16.30;67.20;;;12.04;100.00;94804.09;5267291;27;20361;-55
2024/05/06 01:56:58;;;;;;;2.65;2.10;;;16.30;67.30;;;12.04;100.00;94801.44;5272539;27;20024;-56
2024/05/06 01:59:24;;;;;;;3.20;2.28;;;16.20;67.30;;;12.01;100.00;94805.47;5263137;27;20020;-55
2024/05/06 02:01:50;;;;;;;2.30;2.10;;;16.20;67.40;;;12.01;100.00;94810.03;5283057;27;20001;-55
2024/05/06 02:04:15;;;;;;;3.70;2.50;;;16.20;67.50;;;11.98;100.00;94811.38;5270330;27;20009;-55
2024/05/06 02:06:44;;;;;;;4.75;2.42;;;16.20;67.60;;;11.95;100.00;94811.19;5281424;27;20473;-55
2024/05/06 02:09:10;;;;;;;3.95;2.45;;;16.20;67.80;;;11.94;100.00;94806.91;5268843;27;20011;-50
2024/05/06 02:11:40;;;;;;;7.75;1.95;;;16.20;67.80;;;11.93;100.00;94805.34;5272534;27;20013;-48
2024/05/06 02:14:07;;;;;;;2.83;2.05;;;16.10;67.90;;;11.90;100.00;94808.59;5260775;27;20859;-53
2024/05/06 02:16:33;;;;;;;2.00;1.80;;;16.10;67.90;;;11.89;100.00;94807.00;5264772;27;20009;-50
2024/05/06 02:18:58;;;;;;;2.70;1.50;;;16.10;68.00;;;11.87;100.00;94803.81;5245912;27;20077;-53
2024/05/06 02:21:24;;;;;;;2.08;1.70;;;16.10;68.10;;;11.86;100.00;94800.38;5270622;27;20421;-53
2024/05/06 02:23:50;;;;;;;3.42;2.10;;;16.10;68.10;;;11.84;100.00;94788.38;5273438;27;20017;-55
2024/05/06 02:26:16;;;;;;;3.83;1.90;;;16.10;68.30;;;11.86;100.00;94784.38;5278356;27;20024;-52
2024/05/06 02:28:43;;;;;;;4.28;2.53;;;16.10;68.40;;;11.86;100.00;94781.69;5275996;27;20081;-54
2024/05/06 02:31:09;;;;;;;3.33;2.15;;;16.10;68.50;;;11.86;100.00;94773.69;5280847;27;20489;-51
2024/05/06 02:33:36;;;;;;;2.58;2.20;;;16.10;68.40;;;11.89;100.00;94769.66;5267934;27;20014;-56
2024/05/06 02:36:03;;;;;;;2.35;2.10;;;16.10;68.50;;;11.90;100.00;94765.88;5269789;27;20483;-53
2024/05/06 02:38:28;;;;;;;2.55;2.17;;;16.10;68.40;;;11.80;100.00;94761.47;5260751;27;20010;-53
2024/05/06 02:40:54;;;;;;;3.03;2.20;;;16.10;68.40;;;11.79;100.00;94763.38;5275539;27;20088;-52
2024/05/06 02:43:20;;;;;;;4.35;2.80;;;16.10;68.40;;;11.79;100.00;94759.91;5280250;27;19997;-57
2024/05/06 02:45:46;;;;;;;5.13;3.38;;;16.10;68.40;;;11.74;100.00;94742.09;5269692;27;20021;-54
2024/05/06 02:48:12;;;;;;;4.78;2.90;;;16.10;68.40;;;11.74;100.00;94742.09;5269279;27;20021;-54
2024/05/06 02:50:37;;;;;;;4.82;2.63;;;16.00;68.50;;;11.79;100.00;94734.00;5280902;27;20018;-51
2024/05/06 02:53:03;;;;;;;3.38;3.00;;;16.00;68.50;;;11.77;100.00;94738.84;5288832;27;20006;-49
2024/05/06 02:55:29;;;;;;;7.65;3.60;;;16.00;68.50;;;11.76;100.00;94739.94;5267073;27;20010;-54
2024/05/06 02:57:55;;;;;;;3.72;3.25;;;16.00;68.60;;;11.76;100.00;94736.47;5273776;27;20018;-50
2024/05/06 03:00:21;;;;;;;4.88;2.92;;;16.00;68.60;;;11.73;100.00;94729.06;5273031;27;20005;-50
2024/05/06 03:02:46;;;;;;;4.60;3.25;;;16.00;68.60;;;11.71;100.00;94731.22;5277619;27;20003;-52
2024/05/06 03:05:12;;;;;;;5.45;4.10;;;16.00;68.60;;;11.68;100.00;94729.13;5274881;27;20021;-54
2024/05/06 03:07:38;;;;;;;6.30;4.25;;;16.00;68.70;;;11.71;100.00;94736.56;5274753;27;20016;-54
2024/05/06 03:10:04;;;;;;;5.38;4.57;;;16.00;68.70;;;11.71;100.00;94725.88;5272094;27;20006;-54
2024/05/06 03:12:30;;;;;;;5.88;5.20;;;16.00;68.70;;;11.71;100.00;94734.66;5260865;27;20466;-52
2024/05/06 03:14:56;;;;;;;7.45;5.57;;;16.00;68.70;;;11.71;100.00;94731.22;5278216;27;20068;-56
2024/05/06 03:17:22;;;;;;;7.03;5.47;;;15.90;68.70;;;11.73;100.00;94732.50;5276105;27;20001;-53
2024/05/06 03:19:47;;;;;;;7.30;4.75;;;15.90;68.70;;;11.72;100.00;94730.94;5279115;27;20007;-50
2024/05/06 03:22:13;;;;;;;7.68;5.60;;;16.00;69.60;;;11.71;100.00;94726.66;5265153;27;20084;-54
2024/05/06 03:24:39;;;;;;;4.50;4.10;;;16.00;68.70;;;11.70;100.00;94730.44;5272946;27;20006;-56
2024/05/06 03:27:05;;;;;;;6.88;5.13;;;16.00;68.70;;;11.66;100.00;94726.75;5267639;27;20433;-53
2024/05/06 03:29:31;;;;;;;9.52;5.95;;;16.00;68.60;;;11.66;100.00;94723.28;5276006;27;20006;-52
2024/05/06 03:31:56;;;;;;;10.20;5.72;;;15.90;68.60;;;11.65;100.00;94725.16;5277619;27;20024;-55
2024/05/06 03:34:22;;;;;;;6.78;5.60;;;15.90;68.60;;;11.65;100.00;94724.38;5267967;27;20002;-49
2024/05/06 03:36:48;;;;;;;7.68;6.38;;;16.00;68.60;;;11.63;100.00;94719.34;5270245;27;20014;-50
2024/05/06 03:39:14;;;;;;;7.82;6.10;;;16.00;68.60;;;11.62;100.00;94712.41;5269669;27;20006;-51
2024/05/06 03:41:40;;;;;;;9.40;6.13;;;15.90;68.60;;;11.61;100.00;94715.38;5262171;27;20006;-51
2024/05/06 03:44:05;;;;;;;9.07;6.05;;;16.00;68.60;;;11.60;100.00;94711.13;5280238;27;20021;-53
2024/05/06 03:46:31;;;;;;;8.50;6.00;;;15.90;68.60;;;11.59;100.00;94715.66;5262384;27;20006;-54
2024/05/06 03:48:57;;;;;;;7.00;6.18;;;16.00;68.70;;;11.57;100.00;94707.97;5287721;27;20464;-53
2024/05/06 03:51:23;;;;;;;8.85;6.22;;;15.90;68.60;;;11.58;100.00;94711.41;5286839;27;20041;-53
2024/05/06 03:53:49;;;;;;;8.02;6.45;;;15.90;68.60;;;11.54;100.00;94716.53;5264244;27;20020;-54
2024/05/06 03:56:15;;;;;;;7.30;6.25;;;15.90;68.60;;;11.52;100.00;94717.91;5269260;27;20352;-50
2024/05/06 03:58:41;;;;;;;8.57;6.32;;;15.90;68.60;;;11.53;100.00;94722.16;5276231;27;20034;-55
2024/05/06 04:01:18;;;;;;;7.13;5.97;;;15.90;68.70;;;11.52;100.00;94717.91;5281128;27;20466;-55
2024/05/06 04:03:45;;;;;;;9.18;6.13;;;15.90;69.00;;;11.52;100.00;94728.59;5279322;27;20032;-52
2024/05/06 04:06:16;;;;;;;8.18;6.05;;;15.90;68.80;;;11.52;100.00;94732.03;5258471;27;20014;-52
2024/05/06 04:08:42;;;;;;;7.65;5.95;;;15.90;69.80;;;11.53;100.00;94720.31;5262622;27;20021;-56
2024/05/06 04:11:08;;;;;;;8.95;5.90;;;15.90;68.90;;;11.53;100.00;94722.97;5282820;27;20037;-51
2024/05/06 04:13:34;;;;;;;7.63;6.15;;;15.90;68.90;;;11.53;100.00;94722.97;5269876;27;20026;-53
2024/05/06 04:16:01;;;;;;;8.07;6.03;;;15.90;68.90;;;11.55;100.00;94723.44;5286822;27;20016;-51
2024/05/06 04:18:27;;;;;;;8.13;5.55;;;15.90;68.90;;;11.55;100.00;94723.44;5258386;27;20003;-53
2024/05/06 04:20:53;;;;;;;7.93;6.10;;;16.00;68.90;;;11.56;100.00;94726.91;5282403;27;20614;-54
2024/05/06 04:28:47;;;;;;;7.45;6.20;;;16.00;68.90;;;11.60;100.00;94730.59;5272218;27;20528;-54
2024/05/06 04:31:17;;;;;;;8.85;6.25;;;16.00;68.80;;;11.61;100.00;94734.84;5264042;27;20006;-56
2024/05/06 04:33:44;;;;;;;7.50;6.10;;;16.00;68.90;;;11.66;100.00;94733.94;5251735;27;20536;-53
2024/05/06 04:36:11;;;;;;;7.50;6.13;;;16.10;69.00;;;11.67;100.00;94736.34;5277546;27;20078;-49
2024/05/06 04:38:37;;;;;;;8.35;6.63;;;16.10;69.00;;;11.72;100.00;94738.13;5279502;27;20024;-49
2024/05/06 04:41:04;;;;;;;10.00;6.65;;;16.20;69.00;;;11.79;100.00;94733.22;5275791;27;20036;-52
2024/05/06 04:43:30;;;;;;;7.45;6.22;;;16.20;69.00;;;11.88;100.00;94736.06;5272399;27;20008;-50
2024/05/06 04:45:58;;;;;;;6.70;6.00;;;16.30;68.90;;;12.00;100.00;94744.34;5260596;27;20002;-52
2024/05/06 04:48:24;;;;;;;7.20;6.32;;;16.40;69.00;;;12.02;100.00;94739.53;5278748;27;20016;-49
2024/05/06 04:50:50;;;;;;;8.10;6.30;;;16.40;68.90;;;12.05;100.00;94752.28;5276004;27;20015;-55
2024/05/06 04:53:16;;;;;;;7.10;6.32;;;16.40;68.90;;;12.05;100.00;94757.63;5282268;27;20012;-55
2024/05/06 04:55:44;;;;;;;7.53;5.57;;;16.50;69.00;;;12.06;100.00;94755.75;5257593;27;20421;-50
2024/05/06 04:58:10;;;;;;;10.43;5.10;;;16.40;68.90;;;12.07;100.00;94752.00;5275231;27;20009;-54
2024/05/06 05:00:36;;;;;;;6.47;5.30;;;16.50;68.90;;;12.08;100.00;94753.59;5257263;27;20010;-55
2024/05/06 05:03:03;;;;;;;7.60;5.60;;;16.50;69.00;;;12.11;100.00;94753.00;5277513;27;20016;-53
2024/05/06 05:05:28;;;;;;;11.05;6.80;;;16.50;68.90;;;12.13;100.00;94750.84;5274151;27;20342;-52
2024/05/06 05:07:54;;;;;;;8.20;5.80;;;16.60;69.00;;;12.17;100.00;94755.28;5275701;27;20018;-55
2024/05/06 05:10:20;;;;;;;6.15;5.30;;;16.70;69.00;;;12.23;100.00;94746.09;5270113;27;20006;-53
2024/05/06 05:12:46;;;;;;;6.43;5.75;;;16.80;68.90;;;12.26;100.00;94745.50;5270181;27;20339;-52
2024/05/06 05:15:12;;;;;;;6.13;5.18;;;16.80;68.90;;;12.31;100.00;94747.28;5271543;27;20014;-51
2024/05/06 05:17:38;;;;;;;7.75;4.97;;;16.90;68.90;;;12.37;100.00;94748.78;5270435;27;21726;-49
2024/05/06 05:20:04;;;;;;;5.35;4.82;;;16.90;68.90;;;12.41;100.00;94740.94;5266244;27;20760;-49
2024/05/06 05:22:30;;;;;;;6.82;5.03;;;17.00;68.90;;;12.43;100.00;94742.25;5266116;27;20009;-51
2024/05/06 05:24:56;;;;;;;6.72;5.40;;;17.00;68.90;;;12.45;100.00;94741.97;5274454;27;20365;-55
2024/05/06 05:27:22;;;;;;;6.50;5.25;;;17.00;68.80;;;12.47;100.00;94743.25;5275862;27;20046;-52
2024/05/06 05:29:48;;;;;;;5.13;4.63;;;17.00;68.80;;;12.52;100.00;94733.56;5267113;27;20609;-51
2024/05/06 05:32:13;;;;;;;5.88;5.00;;;17.10;68.90;;;12.53;100.00;94741.25;5271458;27;20013;-49
2024/05/06 05:34:39;;;;;;;5.45;4.95;;;17.10;68.80;;;12.50;100.00;94733.84;5295252;27;20392;-55
2024/05/06 05:37:05;;;;;;;10.65;4.47;;;17.10;68.80;;;12.57;100.00;94730.78;5282757;27;20009;-54
2024/05/06 05:39:31;;;;;;;5.78;4.85;;;17.10;68.80;;;12.57;100.00;94734.25;5285681;27;20426;-51
2024/05/06 05:41:57;;;;;;;5.93;4.68;;;17.10;68.70;;;12.61;100.00;94739.78;5285768;27;20079;-54
2024/05/06 05:44:23;;;;;;;5.40;4.25;;;17.10;68.70;;;12.64;100.00;94739.19;5277079;27;20005;-53
2024/05/06 05:46:49;;;;;;;5.13;4.55;;;17.20;68.70;;;12.64;100.00;94739.97;5284921;27;20369;-52
2024/05/06 05:49:15;;;;;;;5.90;4.80;;;17.20;68.70;;;12.70;100.00;94730.78;5277669;27;20041;-56
2024/05/06 05:51:42;;;;;;;5.88;4.30;;;17.20;68.70;;;12.71;100.00;94732.34;5280038;27;20017;-55
2024/05/06 05:54:08;;;;;;;7.10;4.05;;;17.30;68.70;;;12.77;100.00;94727.69;5285156;27;20145;-56
2024/05/06 05:56:34;;;;;;;4.75;3.75;;;17.30;68.70;;;12.81;100.00;94733.22;5292393;27;20042;-56
2024/05/06 05:59:00;;;;;;;5.75;4.18;;;17.40;68.70;;;12.84;100.00;94729.97;5285426;27;20002;-53
2024/05/06 06:01:26;;;;;;;5.70;4.43;;;17.50;68.70;;;12.92;100.00;94734.63;5281055;27;20021;-50
2024/05/06 06:03:56;;;;;;;4.53;4.00;;;17.60;68.60;;;13.03;100.00;94733.28;5282472;27;20470;-48
2024/05/06 06:06:22;;;;;;;3.83;3.47;;;17.70;68.60;;;13.10;100.00;94744.41;5270809;27;20009;-50
2024/05/06 06:08:48;;;;;;;4.18;3.38;;;17.80;68.40;;;13.13;100.00;94730.44;5292999;27;20465;-50
2024/05/06 06:11:14;;;;;;;3.97;3.58;;;18.00;68.30;;;13.24;100.00;94735.53;5287750;27;20020;-54
2024/05/06 06:13:40;;;;;;;6.50;5.15;;;18.10;68.20;;;13.36;100.00;94735.84;5286277;27;19997;-51
2024/05/06 06:16:07;;;;;;;4.97;4.47;;;18.20;68.10;;;13.43;100.00;94736.97;5289579;27;20001;-48
2024/05/06 06:18:33;;;;;;;5.90;5.32;;;18.30;68.10;;;13.47;100.00;94741.72;5272226;27;20539;-49
2024/05/06 06:21:03;;;;;;;6.95;6.13;;;18.30;68.00;;;13.47;100.00;94733.72;5284579;27;20430;-54
2024/05/06 06:23:28;;;;;;;8.38;6.10;;;18.40;67.80;;;13.53;100.00;94732.50;5289820;27;20019;-55
2024/05/06 06:25:54;;;;;;;8.10;6.10;;;18.30;67.50;;;13.51;100.00;94732.81;5269519;27;20522;-52
2024/05/06 06:28:20;;;;;;;7.93;6.60;;;18.40;67.50;;;13.51;100.00;94737.38;5286779;27;20021;-50
2024/05/06 06:30:46;;;;;;;7.63;6.88;;;18.40;67.30;;;13.43;100.00;94734.31;5270193;27;20080;-54
2024/05/06 06:33:12;;;;;;;7.88;6.88;;;18.40;67.20;;;13.47;100.00;94737.16;5274975;27;20005;-54
2024/05/06 06:35:38;;;;;;;12.07;8.30;;;18.30;67.10;;;13.51;100.00;94740.84;5274602;27;20017;-52
2024/05/06 06:38:09;;;;;;;8.80;7.82;;;18.30;67.20;;;13.51;100.00;94737.38;5276904;27;20487;-54
2024/05/06 06:40:35;;;;;;;8.90;8.00;;;18.30;67.30;;;13.55;100.00;94733.78;5287607;27;20016;-56
2024/05/06 06:43:02;;;;;;;8.75;7.63;;;18.20;67.20;;;13.57;100.00;94738.81;5267595;27;20009;-55
2024/05/06 06:45:28;;;;;;;9.15;7.97;;;18.30;67.30;;;13.60;100.00;94732.84;5284738;27;20087;-52
2024/05/06 06:47:58;;;;;;;8.52;7.72;;;18.30;67.30;;;13.66;100.00;94734.31;5260084;27;20010;-55
2024/05/06 06:50:23;;;;;;;9.50;8.50;;;18.20;67.30;;;13.70;100.00;94738.00;5275670;27;19997;-56
2024/05/06 06:52:49;;;;;;;10.35;8.40;;;18.30;67.20;;;13.74;100.00;94730.91;5285472;27;20025;-52
2024/05/06 06:55:15;;;;;;;10.85;9.55;;;18.30;67.20;;;13.75;100.00;94727.13;5273518;27;20086;-55
2024/05/06 06:57:41;;;;;;;11.40;10.20;;;18.40;67.30;;;13.81;100.00;94723.25;5269276;27;20038;-52
2024/05/06 07:00:07;;;;;;;11.35;10.10;;;18.50;67.40;;;13.90;100.00;94723.31;5273373;27;20005;-54
2024/05/06 07:02:33;;;;;;;12.52;10.70;;;18.70;67.30;;;14.00;100.00;94727.59;5285812;27;20029;-49
2024/05/06 07:04:59;;;;;;;14.30;11.90;;;18.90;67.00;;;14.05;100.00;94722.94;5274970;27;20001;-52
2024/05/06 07:07:25;;;;;;;12.63;11.43;;;19.20;66.60;;;14.14;100.00;94725.66;5278818;27;20473;-54
2024/05/06 07:09:51;;;;;;;12.57;11.27;;;19.40;65.90;;;14.28;100.00;94723.66;5262506;27;20009;-54
2024/05/06 07:12:17;;;;;;;12.88;11.57;;;19.70;65.40;;;14.48;100.00;94708.16;5280719;27;20082;-56
2024/05/06 07:14:43;;;;;;;12.60;11.30;;;19.90;65.20;;;14.64;100.00;94714.69;5290942;27;20010;-54
2024/05/06 07:17:09;;;;;;;11.52;10.40;;;20.20;64.90;;;14.83;100.00;94706.38;5272176;27;20020;-53
2024/05/06 07:19:35;;;;;;;10.55;9.55;;;20.40;64.20;;;15.00;100.00;94703.72;5279576;27;20568;-53
2024/05/06 07:22:01;;;;;;;12.32;10.38;;;20.70;63.70;;;15.14;100.00;94698.25;5260576;27;20053;-55
2024/05/06 07:24:27;;;;;;;10.45;9.45;;;20.90;63.30;;;15.39;100.00;94693.97;5275810;27;20069;-52
2024/05/06 07:26:55;;;;;;;9.85;8.68;;;21.20;62.70;;;15.63;100.00;94692.69;5294215;27;20045;-56
2024/05/06 07:29:21;;;;;;;7.25;6.63;;;21.60;62.00;;;15.94;100.00;94695.97;5275371;27;20003;-57
2024/05/06 07:31:47;;;;;;;7.38;6.68;;;21.90;61.30;;;16.08;100.00;94686.97;5280729;27;20003;-51
2024/05/06 07:34:13;;;;;;;5.82;5.32;;;22.10;60.40;;;16.27;100.00;94683.91;5280539;27;20016;-49
2024/05/06 07:36:39;;;;;;;6.50;5.90;;;22.20;59.80;;;16.39;97.39;94684.00;5276447;27;20042;-55
2024/05/06 07:39:05;;;;;;;8.48;6.10;;;22.40;59.20;;;16.54;96.46;94680.75;5282963;27;20014;-54
2024/05/06 07:41:31;;;;;;;7.50;6.90;;;22.60;58.70;;;16.97;98.70;94690.53;5285913;27;20020;-56
2024/05/06 07:43:58;;;;;;;6.68;6.15;;;23.00;58.40;;;17.19;91.75;94684.03;5271416;27;20032;-50
2024/05/06 07:46:24;;;;;;;6.40;5.80;;;23.40;57.80;;;17.40;95.05;94680.56;5274115;27;20011;-53
2024/05/06 07:48:50;;;;;;;6.60;6.05;;;23.90;57.30;;;18.03;90.53;94689.34;5248467;27;20062;-53
2024/05/06 07:51:16;;;;;;;6.07;5.55;;;24.50;56.50;;;18.42;87.80;94693.34;5278711;27;20014;-55
2024/05/06 07:53:42;;;;;;;4.82;4.43;;;24.80;55.70;;;18.56;83.32;94695.72;5284168;27;20063;-52
2024/05/06 07:56:08;;;;;;;3.92;3.63;;;25.00;54.80;;;18.63;80.52;94693.25;5266542;27;20007;-55
2024/05/06 07:58:33;;;;;;;3.80;3.50;;;25.00;54.10;;;18.58;80.55;94696.16;5282516;27;20033;-53
2024/05/06 08:00:59;;;;;;;4.75;4.40;;;25.00;53.70;;;18.70;83.94;94695.38;5279029;27;20001;-57
2024/05/06 08:03:25;;;;;;;4.05;3.75;;;25.00;53.60;;;18.86;80.01;94690.91;5277676;27;20009;-52
2024/05/06 08:05:51;;;;;;;4.28;3.97;;;25.00;53.20;;;18.90;77.23;94689.13;5280834;27;20129;-57
2024/05/06 08:08:17;;;;;;;3.45;3.15;;;25.00;52.80;;;18.86;75.35;94698.22;5270197;27;20504;-57
2024/05/06 08:10:46;;;;;;;3.15;2.85;;;24.90;52.40;;;18.81;75.22;94699.25;5275414;27;20025;-55
2024/05/06 08:13:12;;;;;;;3.70;3.40;;;24.90;51.90;;;18.71;78.08;94700.47;5285280;27;20361;-57
2024/05/06 08:15:37;;;;;;;3.60;3.30;;;24.70;52.10;;;18.57;77.80;94708.06;5282846;27;20042;-55
2024/05/06 08:18:04;;;;;;;2.92;2.72;;;24.60;52.50;;;18.51;79.63;94701.34;5266381;27;20022;-55
2024/05/06 08:20:30;;;;;;;4.25;3.80;;;24.50;51.90;;;18.34;80.21;94706.94;5273756;27;20010;-50
2024/05/06 08:22:55;;;;;;;4.20;3.80;;;24.30;51.90;;;18.28;81.11;94709.06;5278600;27;20448;-54
2024/05/06 08:25:21;;;;;;;4.97;4.50;;;24.20;52.00;;;18.01;85.11;94699.66;5279222;27;20001;-54
2024/05/06 08:27:47;;;;;;;5.55;5.05;;;24.00;53.00;;;17.95;85.64;94699.09;5291158;27;20002;-55
2024/05/06 08:30:13;;;;;;;4.40;4.00;;;23.80;52.60;;;17.90;86.52;94704.69;5269549;27;20085;-53
2024/05/06 08:32:39;;;;;;;4.35;3.88;;;23.70;52.90;;;17.73;83.88;94707.50;5285610;27;20102;-52
2024/05/06 08:35:05;;;;;;;5.07;4.13;;;23.60;52.70;;;17.75;86.36;94706.06;5277600;27;20022;-49
2024/05/06 08:37:31;;;;;;;4.10;3.80;;;23.50;53.00;;;17.73;85.73;94704.81;5278545;27;20038;-58
2024/05/06 08:39:57;;;;;;;4.68;4.28;;;23.50;53.00;;;17.75;85.20;94706.06;5291679;27;20027;-56
2024/05/06 08:42:23;;;;;;;4.55;4.15;;;23.50;53.00;;;17.73;84.79;94705.59;5273625;27;20003;-57
2024/05/06 08:44:55;;;;;;;4.45;4.05;;;23.50;52.90;;;17.77;87.35;94711.16;5276813;27;20007;-56
2024/05/06 08:47:26;;;;;;;5.28;4.22;;;23.60;53.10;;;17.84;86.10;94713.31;5273374;27;20009;-53
2024/05/06 08:49:55;;;;;;;6.15;5.55;;;23.60;53.10;;;17.76;87.66;94702.25;5285983;27;20350;-53
2024/05/06 08:52:24;;;;;;;6.95;5.82;;;23.50;53.30;;;17.71;88.99;94713.25;5280211;27;20049;-50
2024/05/06 08:54:50;;;;;;;7.55;6.50;;;23.40;53.40;;;17.60;89.61;94714.75;5287176;27;20507;-55
2024/05/06 08:57:18;;;;;;;8.55;7.55;;;23.20;53.50;;;17.42;89.91;94711.41;5269782;27;20007;-51
2024/05/06 08:59:48;;;;;;;8.60;7.70;;;23.00;53.70;;;17.37;91.19;94710.84;5269027;27;20046;-51
2024/05/06 09:02:15;;;;;;;7.32;6.63;;;22.90;54.00;;;17.29;91.13;94713.25;5286128;27;20364;-54
2024/05/06 09:04:43;;;;;;;6.82;6.13;;;22.70;54.20;;;17.25;91.62;94719.63;5288734;27;20008;-54
2024/05/06 09:07:09;;;;;;;4.97;4.55;;;22.60;54.40;;;17.05;90.44;94713.13;5284130;27;20493;-49
2024/05/06 09:09:35;;;;;;;7.88;4.50;;;22.40;54.40;;;16.95;91.79;94711.56;5267044;27;20005;-53
2024/05/06 09:12:05;;;;;;;4.82;3.70;;;22.30;54.60;;;16.90;91.87;94716.38;5278734;27;20078;-54
2024/05/06 09:14:31;;;;;;;3.78;3.47;;;22.20;54.60;;;16.82;91.57;94715.28;5277059;27;20005;-51
2024/05/06 09:16:59;;;;;;;4.25;3.67;;;22.20;54.70;;;16.81;91.47;94711.03;5275672;27;20047;-52
2024/05/06 09:19:30;;;;;;;6.72;3.13;;;22.10;54.80;;;16.87;91.87;94715.13;5283697;27;20041;-54
2024/05/06 09:22:02;;;;;;;3.88;2.92;;;22.20;54.90;;;16.95;89.67;94714.25;5273145;27;20433;-56
2024/05/06 09:24:31;;;;;;;3.42;2.97;;;22.30;54.90;;;17.08;89.46;94710.56;5274646;27;20016;-51
2024/05/06 09:27:00;;;;;;;3.22;2.92;;;22.40;54.70;;;17.25;89.26;94716.94;5293263;27;20028;-49
2024/05/06 09:29:33;;;;;;;3.00;2.70;;;22.60;54.60;;;17.35;88.19;94713.84;5272712;27;20009;-50
2024/05/06 09:32:02;;;;;;;2.50;2.30;;;22.70;55.10;;;17.36;85.92;94723.50;5288149;27;20017;-56
2024/05/06 09:34:33;;;;;;;2.67;2.47;;;22.90;54.20;;;17.50;88.08;94726.72;5289904;27;20473;-50
2024/05/06 09:37:02;;;;;;;3.05;2.83;;;23.10;54.00;;;17.57;89.06;94732.34;5279685;27;20009;-56
2024/05/06 09:39:33;;;;;;;2.92;2.72;;;23.40;53.70;;;17.67;89.39;94728.47;5291283;27;20009;-51
2024/05/06 09:42:19;;;;;;;3.00;2.70;;;23.60;53.60;;;17.75;89.57;94734.91;5277820;27;20048;-57
2024/05/06 09:44:49;;;;;;;3.78;2.70;;;23.70;53.30;;;17.88;90.31;94736.56;5282154;27;20499;-52
2024/05/06 09:47:15;;;;;;;3.03;2.80;;;23.70;53.30;;;17.78;88.85;94742.38;5292165;27;20005;-52
2024/05/06 09:49:43;;;;;;;3.42;2.60;;;23.80;53.10;;;17.73;89.06;94737.91;5284155;27;20009;-51
2024/05/06 09:52:10;;;;;;;2.95;2.40;;;23.70;53.10;;;17.73;92.37;94740.63;5284283;27;20484;-54
2024/05/06 09:54:39;;;;;;;3.50;2.17;;;23.60;53.30;;;17.63;90.29;94737.53;5253268;27;20023;-54
2024/05/06 09:57:11;;;;;;;2.35;2.15;;;23.50;53.40;;;17.45;90.74;94743.06;5258638;27;20014;-53
2024/05/06 09:59:41;;;;;;;3.28;1.58;;;23.40;53.40;;;17.19;89.30;94745.94;5292355;27;20019;-57
2024/05/06 10:02:19;;;;;;;3.42;1.80;;;23.40;53.00;;;17.24;92.60;94747.66;5274923;27;20456;-55
2024/05/06 10:04:47;;;;;;;2.88;1.65;;;23.30;53.40;;;17.17;90.68;94752.75;5279345;27;20003;-56
2024/05/06 10:07:22;;;;;;;2.20;1.35;;;23.20;53.30;;;17.11;91.91;94752.16;5295152;27;20472;-53
2024/05/06 10:09:58;;;;;;;2.03;1.25;;;23.10;53.40;;;16.95;92.65;94765.38;5286587;27;20477;-53
2024/05/06 10:12:32;;;;;;;1.45;1.30;;;22.90;53.50;;;16.87;94.11;94760.84;5273071;27;20356;-51
2024/05/06 10:15:04;;;;;;;1.40;1.30;;;22.60;53.80;;;16.89;99.71;94769.34;5272172;27;20024;-56
2024/05/06 10:17:42;;;;;;;4.32;1.50;;;22.30;54.60;;;16.58;100.00;94775.00;5275843;27;20019;-56